Enterprise, Kansas
Current Conditions -  °F | °C
As of 7:58 PM on Friday 24 Oct 2014 (Local Time) from KFRI Reporting Station
Clear Clear  
Wind Chill: 72°   Ceiling: Unl
Heat Index: 72°   Visibility: 10mi
Dew Point: 62°   Wind: 5mph
Humidity: 72%   Direction: 260°W
Pressure: 29.95"   Gusts: NA
Location:  38.9°N, 97.12°W
Report Text: KFRI 250058Z AUTO 26004KT 10SM CLR 22/17 A2995 RMK AO2 SLP135 T02210168
Loading
Personal Weather Stations






























Interactive Weather Map
Tropical Storm Tracking
New forecast layout! Learn more

10-Day Weather Forecast

Advertisements
Track Severe Weather on mobile